Forside
METAR-TAF:

METAR-TAF

Lufthavne :

West Plains Municipal Airport

West Plains, Missouri, USA

Breddekreds: 36-52-45N, længdekreds: 091-54-18W, højde: 374 m

Aktuelle vejr

Denne rapport blev lavet for 32 minutter siden, kl. 11:53 UTC
Vind 13 kt fra sydsydøst med vindstød på up til 24 kt
Temperatur 2°C
Fugtighed 75%
Tryk 1016 hPa
Sigt: 16.1 km
Nogle få skyer i en højde af 2400 ft
Overskyet i en højde af 4300 ft

METAR: KUNO 221153Z AUTO 16013G24KT 10SM FEW024 OVC043 02/M02 A3001 RMK AO2 SLP171 T00221017 10028 21011 56018

Tid: 06:25 (12:25 UTC)


TAF: fraværende

Vejrobservationer og prognoser fra mere end 4000 lufthavne (METAR og TAF).

De gule og røde prikker repræsenterer de meteorologiske stationer.

Flyt musen over at se navnet på stationen.

Så klik over at se vejr observationer og prognoser.

At skifte det kort: Klik på de grønne knapper med et sort kors for at zoome ind; på den grønne knap med en bindestreg for at zoome ud; eller på de grønne pile for tilstødende kort.


METAR-TAF: